sensor_id;sensor_type;location;lat;lon;timestamp;P1;durP1;ratioP1;P2;durP2;ratioP2
1593;SDS011;790;47.000;16.084;2022-10-16T00:02:00;60.30;;;39.27;;
1593;SDS011;790;47.000;16.084;2022-10-16T00:04:27;71.80;;;41.13;;
1593;SDS011;790;47.000;16.084;2022-10-16T00:06:54;61.80;;;39.53;;
1593;SDS011;790;47.000;16.084;2022-10-16T00:09:21;74.73;;;40.93;;
1593;SDS011;790;47.000;16.084;2022-10-16T00:11:48;70.80;;;38.50;;
1593;SDS011;790;47.000;16.084;2022-10-16T00:14:15;44.80;;;36.83;;
1593;SDS011;790;47.000;16.084;2022-10-16T00:16:42;49.60;;;38.47;;
1593;SDS011;790;47.000;16.084;2022-10-16T00:19:11;48.80;;;38.07;;
1593;SDS011;790;47.000;16.084;2022-10-16T00:21:38;45.47;;;38.03;;
1593;SDS011;790;47.000;16.084;2022-10-16T00:24:06;46.63;;;38.00;;
1593;SDS011;790;47.000;16.084;2022-10-16T00:26:35;50.40;;;37.40;;
1593;SDS011;790;47.000;16.084;2022-10-16T00:29:04;42.23;;;35.60;;
1593;SDS011;790;47.000;16.084;2022-10-16T00:31:31;39.13;;;34.87;;
1593;SDS011;790;47.000;16.084;2022-10-16T00:33:59;41.80;;;34.73;;
1593;SDS011;790;47.000;16.084;2022-10-16T00:36:28;39.63;;;35.30;;
1593;SDS011;790;47.000;16.084;2022-10-16T00:38:56;38.10;;;33.97;;
1593;SDS011;790;47.000;16.084;2022-10-16T00:41:25;37.50;;;32.93;;
1593;SDS011;790;47.000;16.084;2022-10-16T00:43:54;44.47;;;34.13;;
1593;SDS011;790;47.000;16.084;2022-10-16T00:46:22;40.87;;;34.97;;
1593;SDS011;790;47.000;16.084;2022-10-16T00:48:52;44.00;;;35.00;;
1593;SDS011;790;47.000;16.084;2022-10-16T00:51:30;41.70;;;35.57;;
1593;SDS011;790;47.000;16.084;2022-10-16T00:54:01;43.23;;;34.07;;
1593;SDS011;790;47.000;16.084;2022-10-16T00:56:31;41.83;;;34.83;;
1593;SDS011;790;47.000;16.084;2022-10-16T00:58:59;39.47;;;34.17;;
1593;SDS011;790;47.000;16.084;2022-10-16T01:01:29;47.07;;;35.83;;
1593;SDS011;790;47.000;16.084;2022-10-16T01:03:56;38.67;;;34.00;;
1593;SDS011;790;47.000;16.084;2022-10-16T01:06:24;46.57;;;32.90;;
1593;SDS011;790;47.000;16.084;2022-10-16T01:09:09;45.30;;;35.50;;
1593;SDS011;790;47.000;16.084;2022-10-16T01:11:43;43.97;;;34.07;;
1593;SDS011;790;47.000;16.084;2022-10-16T01:14:15;44.03;;;33.50;;
1593;SDS011;790;47.000;16.084;2022-10-16T01:16:49;40.43;;;33.93;;
1593;SDS011;790;47.000;16.084;2022-10-16T01:19:25;40.10;;;33.90;;
1593;SDS011;790;47.000;16.084;2022-10-16T01:22:03;52.73;;;36.70;;
1593;SDS011;790;47.000;16.084;2022-10-16T01:24:36;45.00;;;35.23;;
1593;SDS011;790;47.000;16.084;2022-10-16T01:27:08;41.27;;;34.40;;
1593;SDS011;790;47.000;16.084;2022-10-16T01:29:39;39.83;;;33.60;;
1593;SDS011;790;47.000;16.084;2022-10-16T01:32:15;39.20;;;33.47;;
1593;SDS011;790;47.000;16.084;2022-10-16T01:34:48;40.17;;;33.97;;
1593;SDS011;790;47.000;16.084;2022-10-16T01:37:21;37.77;;;33.43;;
1593;SDS011;790;47.000;16.084;2022-10-16T01:39:53;37.47;;;32.10;;
1593;SDS011;790;47.000;16.084;2022-10-16T01:42:26;37.90;;;32.20;;
1593;SDS011;790;47.000;16.084;2022-10-16T01:44:56;47.80;;;36.13;;
1593;SDS011;790;47.000;16.084;2022-10-16T01:47:26;38.43;;;32.17;;
1593;SDS011;790;47.000;16.084;2022-10-16T01:49:56;41.97;;;33.27;;
1593;SDS011;790;47.000;16.084;2022-10-16T01:52:26;41.17;;;31.73;;
1593;SDS011;790;47.000;16.084;2022-10-16T01:54:55;38.50;;;31.60;;
1593;SDS011;790;47.000;16.084;2022-10-16T01:57:25;37.63;;;31.87;;
1593;SDS011;790;47.000;16.084;2022-10-16T01:59:54;42.77;;;31.67;;
1593;SDS011;790;47.000;16.084;2022-10-16T02:02:28;37.93;;;32.47;;
1593;SDS011;790;47.000;16.084;2022-10-16T02:04:58;44.37;;;33.93;;
1593;SDS011;790;47.000;16.084;2022-10-16T02:07:31;48.50;;;34.00;;
1593;SDS011;790;47.000;16.084;2022-10-16T02:09:59;38.97;;;32.80;;
1593;SDS011;790;47.000;16.084;2022-10-16T02:12:28;42.77;;;33.23;;
1593;SDS011;790;47.000;16.084;2022-10-16T02:14:59;39.80;;;31.97;;
1593;SDS011;790;47.000;16.084;2022-10-16T02:17:27;34.93;;;31.20;;
1593;SDS011;790;47.000;16.084;2022-10-16T02:19:55;39.63;;;33.33;;
1593;SDS011;790;47.000;16.084;2022-10-16T02:22:26;42.27;;;33.30;;
1593;SDS011;790;47.000;16.084;2022-10-16T02:24:57;42.63;;;32.70;;
1593;SDS011;790;47.000;16.084;2022-10-16T02:27:32;36.23;;;32.20;;
1593;SDS011;790;47.000;16.084;2022-10-16T02:30:05;42.77;;;35.20;;
1593;SDS011;790;47.000;16.084;2022-10-16T02:32:38;40.23;;;33.07;;
1593;SDS011;790;47.000;16.084;2022-10-16T02:35:08;44.03;;;34.00;;
1593;SDS011;790;47.000;16.084;2022-10-16T02:37:36;37.90;;;32.63;;
1593;SDS011;790;47.000;16.084;2022-10-16T02:40:05;39.43;;;33.17;;
1593;SDS011;790;47.000;16.084;2022-10-16T02:42:36;38.67;;;32.13;;
1593;SDS011;790;47.000;16.084;2022-10-16T02:45:05;38.77;;;32.70;;
1593;SDS011;790;47.000;16.084;2022-10-16T02:47:34;40.23;;;33.63;;
1593;SDS011;790;47.000;16.084;2022-10-16T02:50:02;38.13;;;33.10;;
1593;SDS011;790;47.000;16.084;2022-10-16T02:52:30;38.50;;;32.27;;
1593;SDS011;790;47.000;16.084;2022-10-16T02:54:57;36.10;;;31.57;;
1593;SDS011;790;47.000;16.084;2022-10-16T02:57:24;38.87;;;31.93;;
1593;SDS011;790;47.000;16.084;2022-10-16T02:59:52;37.47;;;33.43;;
1593;SDS011;790;47.000;16.084;2022-10-16T03:02:19;41.50;;;33.47;;
1593;SDS011;790;47.000;16.084;2022-10-16T03:04:46;41.83;;;34.20;;
1593;SDS011;790;47.000;16.084;2022-10-16T03:07:13;41.03;;;33.70;;
1593;SDS011;790;47.000;16.084;2022-10-16T03:09:40;40.90;;;35.43;;
1593;SDS011;790;47.000;16.084;2022-10-16T03:12:07;40.33;;;34.00;;
1593;SDS011;790;47.000;16.084;2022-10-16T03:14:34;39.57;;;32.37;;
1593;SDS011;790;47.000;16.084;2022-10-16T03:17:03;35.00;;;30.97;;
1593;SDS011;790;47.000;16.084;2022-10-16T03:19:30;44.00;;;35.27;;
1593;SDS011;790;47.000;16.084;2022-10-16T03:21:57;42.70;;;33.53;;
1593;SDS011;790;47.000;16.084;2022-10-16T03:24:24;36.63;;;31.37;;
1593;SDS011;790;47.000;16.084;2022-10-16T03:26:51;37.90;;;32.47;;
1593;SDS011;790;47.000;16.084;2022-10-16T03:29:18;39.63;;;31.63;;
1593;SDS011;790;47.000;16.084;2022-10-16T03:31:45;35.27;;;30.03;;
1593;SDS011;790;47.000;16.084;2022-10-16T03:34:15;34.87;;;31.17;;
1593;SDS011;790;47.000;16.084;2022-10-16T03:36:42;37.63;;;32.47;;
1593;SDS011;790;47.000;16.084;2022-10-16T03:39:09;37.50;;;32.83;;
1593;SDS011;790;47.000;16.084;2022-10-16T03:41:36;37.47;;;31.90;;
1593;SDS011;790;47.000;16.084;2022-10-16T03:44:03;34.97;;;30.33;;
1593;SDS011;790;47.000;16.084;2022-10-16T03:46:30;37.60;;;29.50;;
1593;SDS011;790;47.000;16.084;2022-10-16T03:48:57;37.27;;;32.10;;
1593;SDS011;790;47.000;16.084;2022-10-16T03:51:25;37.57;;;33.20;;
1593;SDS011;790;47.000;16.084;2022-10-16T03:53:52;39.63;;;32.53;;
1593;SDS011;790;47.000;16.084;2022-10-16T03:56:19;41.50;;;33.90;;
1593;SDS011;790;47.000;16.084;2022-10-16T03:58:46;36.33;;;32.53;;
1593;SDS011;790;47.000;16.084;2022-10-16T04:01:13;37.00;;;32.87;;
1593;SDS011;790;47.000;16.084;2022-10-16T04:03:41;34.53;;;30.83;;
1593;SDS011;790;47.000;16.084;2022-10-16T04:06:08;36.23;;;32.33;;
1593;SDS011;790;47.000;16.084;2022-10-16T04:08:36;36.20;;;32.20;;
1593;SDS011;790;47.000;16.084;2022-10-16T04:11:04;40.40;;;34.20;;
1593;SDS011;790;47.000;16.084;2022-10-16T04:13:31;34.63;;;30.93;;
1593;SDS011;790;47.000;16.084;2022-10-16T04:15:58;38.33;;;32.67;;
1593;SDS011;790;47.000;16.084;2022-10-16T04:18:25;40.10;;;32.03;;
1593;SDS011;790;47.000;16.084;2022-10-16T04:20:53;37.77;;;33.57;;
1593;SDS011;790;47.000;16.084;2022-10-16T04:23:20;39.50;;;34.47;;
1593;SDS011;790;47.000;16.084;2022-10-16T04:25:49;39.10;;;34.47;;
1593;SDS011;790;47.000;16.084;2022-10-16T04:28:17;37.00;;;33.03;;
1593;SDS011;790;47.000;16.084;2022-10-16T04:30:44;40.53;;;34.70;;
1593;SDS011;790;47.000;16.084;2022-10-16T04:33:11;37.33;;;32.77;;
1593;SDS011;790;47.000;16.084;2022-10-16T04:35:39;38.33;;;33.50;;
1593;SDS011;790;47.000;16.084;2022-10-16T04:38:06;36.43;;;32.53;;
1593;SDS011;790;47.000;16.084;2022-10-16T04:40:33;39.13;;;32.87;;
1593;SDS011;790;47.000;16.084;2022-10-16T04:43:02;38.57;;;33.33;;
1593;SDS011;790;47.000;16.084;2022-10-16T04:45:30;41.90;;;34.47;;
1593;SDS011;790;47.000;16.084;2022-10-16T04:47:57;40.57;;;33.63;;
1593;SDS011;790;47.000;16.084;2022-10-16T04:50:25;36.63;;;32.53;;
1593;SDS011;790;47.000;16.084;2022-10-16T04:52:52;36.23;;;32.30;;
1593;SDS011;790;47.000;16.084;2022-10-16T04:55:19;35.13;;;31.30;;
1593;SDS011;790;47.000;16.084;2022-10-16T04:57:47;40.53;;;32.47;;
1593;SDS011;790;47.000;16.084;2022-10-16T05:00:15;39.90;;;31.83;;
1593;SDS011;790;47.000;16.084;2022-10-16T05:02:42;33.43;;;30.03;;
1593;SDS011;790;47.000;16.084;2022-10-16T05:05:09;36.10;;;32.17;;
1593;SDS011;790;47.000;16.084;2022-10-16T05:07:37;38.40;;;32.70;;
1593;SDS011;790;47.000;16.084;2022-10-16T05:10:04;43.53;;;36.43;;
1593;SDS011;790;47.000;16.084;2022-10-16T05:12:32;42.20;;;35.63;;
1593;SDS011;790;47.000;16.084;2022-10-16T05:15:00;39.27;;;35.03;;
1593;SDS011;790;47.000;16.084;2022-10-16T05:17:28;38.43;;;34.03;;
1593;SDS011;790;47.000;16.084;2022-10-16T05:19:55;39.10;;;34.80;;
1593;SDS011;790;47.000;16.084;2022-10-16T05:22:23;38.80;;;33.67;;
1593;SDS011;790;47.000;16.084;2022-10-16T05:24:50;39.43;;;34.00;;
1593;SDS011;790;47.000;16.084;2022-10-16T05:27:17;38.63;;;34.20;;
1593;SDS011;790;47.000;16.084;2022-10-16T05:29:44;37.37;;;33.00;;
1593;SDS011;790;47.000;16.084;2022-10-16T05:32:12;38.10;;;34.10;;
1593;SDS011;790;47.000;16.084;2022-10-16T05:34:41;37.93;;;33.90;;
1593;SDS011;790;47.000;16.084;2022-10-16T05:37:09;39.90;;;32.90;;
1593;SDS011;790;47.000;16.084;2022-10-16T05:39:36;38.33;;;34.20;;
1593;SDS011;790;47.000;16.084;2022-10-16T05:42:03;36.40;;;32.27;;
1593;SDS011;790;47.000;16.084;2022-10-16T05:44:31;38.13;;;33.53;;
1593;SDS011;790;47.000;16.084;2022-10-16T05:46:58;41.97;;;33.53;;
1593;SDS011;790;47.000;16.084;2022-10-16T05:49:26;35.43;;;31.77;;
1593;SDS011;790;47.000;16.084;2022-10-16T05:51:54;39.53;;;33.63;;
1593;SDS011;790;47.000;16.084;2022-10-16T05:54:21;44.63;;;35.70;;
1593;SDS011;790;47.000;16.084;2022-10-16T05:56:48;41.73;;;35.43;;
1593;SDS011;790;47.000;16.084;2022-10-16T05:59:15;39.37;;;33.73;;
1593;SDS011;790;47.000;16.084;2022-10-16T06:01:42;37.97;;;33.87;;
1593;SDS011;790;47.000;16.084;2022-10-16T06:04:09;36.87;;;32.87;;
1593;SDS011;790;47.000;16.084;2022-10-16T06:06:36;35.83;;;31.87;;
1593;SDS011;790;47.000;16.084;2022-10-16T06:09:05;36.93;;;32.93;;
1593;SDS011;790;47.000;16.084;2022-10-16T06:11:32;39.30;;;32.67;;
1593;SDS011;790;47.000;16.084;2022-10-16T06:14:00;41.47;;;33.60;;
1593;SDS011;790;47.000;16.084;2022-10-16T06:16:31;33.47;;;29.97;;
1593;SDS011;790;47.000;16.084;2022-10-16T06:18:59;32.37;;;29.00;;
1593;SDS011;790;47.000;16.084;2022-10-16T06:21:27;36.77;;;29.97;;
1593;SDS011;790;47.000;16.084;2022-10-16T06:23:55;32.47;;;29.07;;
1593;SDS011;790;47.000;16.084;2022-10-16T06:26:24;33.33;;;29.77;;
1593;SDS011;790;47.000;16.084;2022-10-16T06:28:53;32.77;;;29.37;;
1593;SDS011;790;47.000;16.084;2022-10-16T06:31:21;33.90;;;30.30;;
1593;SDS011;790;47.000;16.084;2022-10-16T06:33:52;35.93;;;32.13;;
1593;SDS011;790;47.000;16.084;2022-10-16T06:36:21;37.80;;;33.83;;
1593;SDS011;790;47.000;16.084;2022-10-16T06:38:49;49.63;;;42.77;;
1593;SDS011;790;47.000;16.084;2022-10-16T06:41:16;47.87;;;41.73;;
1593;SDS011;790;47.000;16.084;2022-10-16T06:43:46;47.10;;;39.70;;
1593;SDS011;790;47.000;16.084;2022-10-16T06:46:14;49.90;;;39.83;;
1593;SDS011;790;47.000;16.084;2022-10-16T06:48:42;49.23;;;43.70;;
1593;SDS011;790;47.000;16.084;2022-10-16T06:51:10;59.63;;;45.47;;
1593;SDS011;790;47.000;16.084;2022-10-16T06:53:39;61.43;;;48.80;;
1593;SDS011;790;47.000;16.084;2022-10-16T06:56:08;54.73;;;44.40;;
1593;SDS011;790;47.000;16.084;2022-10-16T06:58:35;50.23;;;41.30;;
1593;SDS011;790;47.000;16.084;2022-10-16T07:01:04;43.63;;;38.63;;
1593;SDS011;790;47.000;16.084;2022-10-16T07:03:32;49.63;;;40.50;;
1593;SDS011;790;47.000;16.084;2022-10-16T07:06:03;43.10;;;37.30;;
1593;SDS011;790;47.000;16.084;2022-10-16T07:08:31;45.17;;;37.83;;
1593;SDS011;790;47.000;16.084;2022-10-16T07:10:59;45.23;;;38.47;;
1593;SDS011;790;47.000;16.084;2022-10-16T07:13:27;46.33;;;39.70;;
1593;SDS011;790;47.000;16.084;2022-10-16T07:15:54;49.97;;;39.07;;
1593;SDS011;790;47.000;16.084;2022-10-16T07:18:23;50.17;;;40.70;;
1593;SDS011;790;47.000;16.084;2022-10-16T07:20:52;45.70;;;40.00;;
1593;SDS011;790;47.000;16.084;2022-10-16T07:23:19;47.40;;;39.90;;
1593;SDS011;790;47.000;16.084;2022-10-16T07:25:53;55.87;;;44.87;;
1593;SDS011;790;47.000;16.084;2022-10-16T07:28:21;58.80;;;46.33;;
1593;SDS011;790;47.000;16.084;2022-10-16T07:30:48;57.63;;;45.90;;
1593;SDS011;790;47.000;16.084;2022-10-16T07:33:15;68.17;;;50.93;;
1593;SDS011;790;47.000;16.084;2022-10-16T07:35:48;62.93;;;49.23;;
1593;SDS011;790;47.000;16.084;2022-10-16T07:38:16;61.83;;;49.07;;
1593;SDS011;790;47.000;16.084;2022-10-16T07:40:44;70.07;;;49.93;;
1593;SDS011;790;47.000;16.084;2022-10-16T07:43:12;64.50;;;50.43;;
1593;SDS011;790;47.000;16.084;2022-10-16T07:45:50;72.47;;;53.73;;
1593;SDS011;790;47.000;16.084;2022-10-16T07:48:17;67.47;;;51.57;;
1593;SDS011;790;47.000;16.084;2022-10-16T07:50:45;72.07;;;54.33;;
1593;SDS011;790;47.000;16.084;2022-10-16T07:53:14;75.10;;;57.30;;
1593;SDS011;790;47.000;16.084;2022-10-16T07:55:41;72.80;;;53.13;;
1593;SDS011;790;47.000;16.084;2022-10-16T07:58:08;64.83;;;50.73;;
1593;SDS011;790;47.000;16.084;2022-10-16T08:00:36;70.17;;;52.70;;
1593;SDS011;790;47.000;16.084;2022-10-16T08:03:03;66.57;;;51.00;;
1593;SDS011;790;47.000;16.084;2022-10-16T08:05:31;69.80;;;52.80;;
1593;SDS011;790;47.000;16.084;2022-10-16T08:07:59;69.93;;;51.63;;
1593;SDS011;790;47.000;16.084;2022-10-16T08:10:33;63.00;;;49.77;;
1593;SDS011;790;47.000;16.084;2022-10-16T08:13:00;62.70;;;49.83;;
1593;SDS011;790;47.000;16.084;2022-10-16T08:15:27;62.37;;;49.37;;
1593;SDS011;790;47.000;16.084;2022-10-16T08:17:55;64.20;;;49.33;;
1593;SDS011;790;47.000;16.084;2022-10-16T08:20:25;64.30;;;48.17;;
1593;SDS011;790;47.000;16.084;2022-10-16T08:22:53;63.67;;;49.40;;
1593;SDS011;790;47.000;16.084;2022-10-16T08:25:20;63.93;;;50.87;;
1593;SDS011;790;47.000;16.084;2022-10-16T08:27:49;66.63;;;47.13;;
1593;SDS011;790;47.000;16.084;2022-10-16T08:30:17;59.47;;;47.27;;
1593;SDS011;790;47.000;16.084;2022-10-16T08:32:46;57.03;;;45.00;;
1593;SDS011;790;47.000;16.084;2022-10-16T08:35:13;56.07;;;44.57;;
1593;SDS011;790;47.000;16.084;2022-10-16T08:37:41;54.50;;;43.63;;
1593;SDS011;790;47.000;16.084;2022-10-16T08:40:15;55.00;;;44.30;;
1593;SDS011;790;47.000;16.084;2022-10-16T08:42:54;54.40;;;42.77;;
1593;SDS011;790;47.000;16.084;2022-10-16T08:45:34;54.87;;;44.13;;
1593;SDS011;790;47.000;16.084;2022-10-16T08:48:14;51.80;;;42.43;;
1593;SDS011;790;47.000;16.084;2022-10-16T08:50:46;51.30;;;39.77;;
1593;SDS011;790;47.000;16.084;2022-10-16T08:53:18;49.23;;;39.60;;
1593;SDS011;790;47.000;16.084;2022-10-16T08:55:49;44.43;;;37.20;;
1593;SDS011;790;47.000;16.084;2022-10-16T08:58:19;45.07;;;35.87;;
1593;SDS011;790;47.000;16.084;2022-10-16T09:00:48;43.47;;;37.40;;
1593;SDS011;790;47.000;16.084;2022-10-16T09:03:30;44.00;;;35.13;;
1593;SDS011;790;47.000;16.084;2022-10-16T09:06:09;45.17;;;35.57;;
1593;SDS011;790;47.000;16.084;2022-10-16T09:08:44;40.40;;;33.87;;
1593;SDS011;790;47.000;16.084;2022-10-16T09:11:24;42.33;;;35.88;;
1593;SDS011;790;47.000;16.084;2022-10-16T09:14:04;42.67;;;35.13;;
1593;SDS011;790;47.000;16.084;2022-10-16T09:16:44;42.67;;;35.50;;
1593;SDS011;790;47.000;16.084;2022-10-16T09:19:19;43.20;;;36.00;;
1593;SDS011;790;47.000;16.084;2022-10-16T09:21:50;43.33;;;35.63;;
1593;SDS011;790;47.000;16.084;2022-10-16T09:24:19;41.88;;;33.58;;
1593;SDS011;790;47.000;16.084;2022-10-16T09:26:47;38.23;;;33.17;;
1593;SDS011;790;47.000;16.084;2022-10-16T09:29:16;42.05;;;34.80;;
1593;SDS011;790;47.000;16.084;2022-10-16T09:31:46;38.78;;;33.35;;
1593;SDS011;790;47.000;16.084;2022-10-16T09:36:58;39.17;;;32.55;;
1593;SDS011;790;47.000;16.084;2022-10-16T09:39:28;39.20;;;33.58;;
1593;SDS011;790;47.000;16.084;2022-10-16T09:41:56;37.58;;;33.38;;
1593;SDS011;790;47.000;16.084;2022-10-16T09:44:25;39.35;;;33.65;;
1593;SDS011;790;47.000;16.084;2022-10-16T09:47:01;39.33;;;34.78;;
1593;SDS011;790;47.000;16.084;2022-10-16T09:49:29;36.88;;;32.03;;
1593;SDS011;790;47.000;16.084;2022-10-16T09:52:03;36.55;;;32.53;;
1593;SDS011;790;47.000;16.084;2022-10-16T09:54:30;38.75;;;32.55;;
1593;SDS011;790;47.000;16.084;2022-10-16T09:57:04;38.00;;;32.88;;
1593;SDS011;790;47.000;16.084;2022-10-16T09:59:34;35.80;;;31.45;;
1593;SDS011;790;47.000;16.084;2022-10-16T10:02:11;36.97;;;31.40;;
1593;SDS011;790;47.000;16.084;2022-10-16T10:04:48;35.90;;;32.15;;
1593;SDS011;790;47.000;16.084;2022-10-16T10:07:20;36.35;;;32.47;;
1593;SDS011;790;47.000;16.084;2022-10-16T10:09:51;36.78;;;32.08;;
1593;SDS011;790;47.000;16.084;2022-10-16T10:12:20;36.80;;;30.20;;
1593;SDS011;790;47.000;16.084;2022-10-16T10:14:50;36.95;;;33.05;;
1593;SDS011;790;47.000;16.084;2022-10-16T10:17:19;36.30;;;32.50;;
1593;SDS011;790;47.000;16.084;2022-10-16T10:19:49;35.70;;;31.92;;
1593;SDS011;790;47.000;16.084;2022-10-16T10:22:25;37.40;;;31.92;;
1593;SDS011;790;47.000;16.084;2022-10-16T10:27:56;36.33;;;30.60;;
1593;SDS011;790;47.000;16.084;2022-10-16T10:30:37;31.55;;;27.88;;
1593;SDS011;790;47.000;16.084;2022-10-16T10:33:14;30.65;;;27.42;;
1593;SDS011;790;47.000;16.084;2022-10-16T10:35:49;32.88;;;29.05;;
1593;SDS011;790;47.000;16.084;2022-10-16T10:38:31;33.20;;;29.73;;
1593;SDS011;790;47.000;16.084;2022-10-16T10:44:16;31.20;;;27.85;;
1593;SDS011;790;47.000;16.084;2022-10-16T10:46:54;30.40;;;27.17;;
1593;SDS011;790;47.000;16.084;2022-10-16T10:49:37;32.70;;;27.35;;
1593;SDS011;790;47.000;16.084;2022-10-16T10:52:34;30.92;;;27.38;;
1593;SDS011;790;47.000;16.084;2022-10-16T10:55:20;30.85;;;27.70;;
1593;SDS011;790;47.000;16.084;2022-10-16T10:58:06;30.40;;;27.13;;
1593;SDS011;790;47.000;16.084;2022-10-16T11:00:50;29.42;;;26.23;;
1593;SDS011;790;47.000;16.084;2022-10-16T11:03:31;29.98;;;26.17;;
1593;SDS011;790;47.000;16.084;2022-10-16T11:06:10;30.70;;;27.38;;
1593;SDS011;790;47.000;16.084;2022-10-16T11:08:43;30.10;;;26.92;;
1593;SDS011;790;47.000;16.084;2022-10-16T11:11:15;29.92;;;26.83;;
1593;SDS011;790;47.000;16.084;2022-10-16T11:13:49;32.40;;;26.55;;
1593;SDS011;790;47.000;16.084;2022-10-16T11:16:22;28.92;;;26.00;;
1593;SDS011;790;47.000;16.084;2022-10-16T11:18:56;29.70;;;26.73;;
1593;SDS011;790;47.000;16.084;2022-10-16T11:21:29;33.75;;;27.15;;
1593;SDS011;790;47.000;16.084;2022-10-16T11:24:02;30.45;;;27.20;;
1593;SDS011;790;47.000;16.084;2022-10-16T11:26:38;29.20;;;26.02;;
1593;SDS011;790;47.000;16.084;2022-10-16T11:29:09;27.83;;;25.02;;
1593;SDS011;790;47.000;16.084;2022-10-16T11:31:41;27.90;;;24.65;;
1593;SDS011;790;47.000;16.084;2022-10-16T11:34:17;27.05;;;24.15;;
1593;SDS011;790;47.000;16.084;2022-10-16T11:36:49;29.25;;;25.55;;
1593;SDS011;790;47.000;16.084;2022-10-16T11:39:20;30.73;;;24.92;;
1593;SDS011;790;47.000;16.084;2022-10-16T11:41:50;28.20;;;25.40;;
1593;SDS011;790;47.000;16.084;2022-10-16T11:44:24;26.10;;;23.50;;
1593;SDS011;790;47.000;16.084;2022-10-16T11:47:19;25.20;;;22.38;;
1593;SDS011;790;47.000;16.084;2022-10-16T11:49:55;27.35;;;23.27;;
1593;SDS011;790;47.000;16.084;2022-10-16T11:52:28;26.35;;;23.65;;
1593;SDS011;790;47.000;16.084;2022-10-16T11:55:01;25.10;;;22.45;;
1593;SDS011;790;47.000;16.084;2022-10-16T11:57:39;26.63;;;23.77;;
1593;SDS011;790;47.000;16.084;2022-10-16T12:00:14;25.02;;;22.40;;
1593;SDS011;790;47.000;16.084;2022-10-16T12:02:50;25.10;;;22.55;;
1593;SDS011;790;47.000;16.084;2022-10-16T12:05:27;27.42;;;23.88;;
1593;SDS011;790;47.000;16.084;2022-10-16T12:08:03;25.80;;;23.10;;
1593;SDS011;790;47.000;16.084;2022-10-16T12:10:36;28.35;;;23.85;;
1593;SDS011;790;47.000;16.084;2022-10-16T12:13:05;26.55;;;22.30;;
1593;SDS011;790;47.000;16.084;2022-10-16T12:16:04;26.02;;;23.30;;
1593;SDS011;790;47.000;16.084;2022-10-16T12:18:46;27.05;;;24.27;;
1593;SDS011;790;47.000;16.084;2022-10-16T12:21:16;27.02;;;24.10;;
1593;SDS011;790;47.000;16.084;2022-10-16T12:23:48;26.55;;;24.05;;
1593;SDS011;790;47.000;16.084;2022-10-16T12:26:23;26.90;;;23.95;;
1593;SDS011;790;47.000;16.084;2022-10-16T12:28:53;27.30;;;24.58;;
1593;SDS011;790;47.000;16.084;2022-10-16T12:31:21;25.92;;;23.30;;
1593;SDS011;790;47.000;16.084;2022-10-16T12:33:55;26.35;;;23.70;;
1593;SDS011;790;47.000;16.084;2022-10-16T12:36:29;26.63;;;24.02;;
1593;SDS011;790;47.000;16.084;2022-10-16T12:38:58;27.30;;;24.40;;
1593;SDS011;790;47.000;16.084;2022-10-16T12:41:28;26.60;;;23.80;;
1593;SDS011;790;47.000;16.084;2022-10-16T12:43:56;26.00;;;22.25;;
1593;SDS011;790;47.000;16.084;2022-10-16T12:46:37;26.23;;;23.08;;
1593;SDS011;790;47.000;16.084;2022-10-16T12:49:06;26.88;;;24.10;;
1593;SDS011;790;47.000;16.084;2022-10-16T12:51:48;26.13;;;23.42;;
1593;SDS011;790;47.000;16.084;2022-10-16T12:54:16;25.55;;;22.80;;
1593;SDS011;790;47.000;16.084;2022-10-16T12:56:47;25.27;;;22.52;;
1593;SDS011;790;47.000;16.084;2022-10-16T12:59:26;25.50;;;22.88;;
1593;SDS011;790;47.000;16.084;2022-10-16T13:02:07;25.02;;;22.33;;
1593;SDS011;790;47.000;16.084;2022-10-16T13:04:54;23.65;;;21.15;;
1593;SDS011;790;47.000;16.084;2022-10-16T13:07:36;26.85;;;21.65;;
1593;SDS011;790;47.000;16.084;2022-10-16T13:10:16;25.65;;;22.60;;
1593;SDS011;790;47.000;16.084;2022-10-16T13:13:05;25.10;;;22.50;;
1593;SDS011;790;47.000;16.084;2022-10-16T13:15:48;26.88;;;22.88;;
1593;SDS011;790;47.000;16.084;2022-10-16T13:18:29;25.35;;;22.85;;
1593;SDS011;790;47.000;16.084;2022-10-16T13:21:04;26.17;;;22.85;;
1593;SDS011;790;47.000;16.084;2022-10-16T13:23:43;24.85;;;22.25;;
1593;SDS011;790;47.000;16.084;2022-10-16T13:26:21;28.08;;;22.10;;
1593;SDS011;790;47.000;16.084;2022-10-16T13:28:58;26.73;;;24.02;;
1593;SDS011;790;47.000;16.084;2022-10-16T13:31:26;27.85;;;23.48;;
1593;SDS011;790;47.000;16.084;2022-10-16T13:33:55;26.35;;;23.35;;
1593;SDS011;790;47.000;16.084;2022-10-16T13:36:25;27.42;;;23.52;;
1593;SDS011;790;47.000;16.084;2022-10-16T13:39:03;26.85;;;24.08;;
1593;SDS011;790;47.000;16.084;2022-10-16T13:41:37;27.00;;;24.15;;
1593;SDS011;790;47.000;16.084;2022-10-16T13:44:04;27.17;;;23.90;;
1593;SDS011;790;47.000;16.084;2022-10-16T13:46:35;28.00;;;24.38;;
1593;SDS011;790;47.000;16.084;2022-10-16T13:49:02;27.20;;;24.40;;
1593;SDS011;790;47.000;16.084;2022-10-16T13:51:31;30.38;;;25.65;;
1593;SDS011;790;47.000;16.084;2022-10-16T13:53:59;28.40;;;25.38;;
1593;SDS011;790;47.000;16.084;2022-10-16T13:56:28;27.08;;;24.42;;
1593;SDS011;790;47.000;16.084;2022-10-16T13:59:00;27.80;;;24.77;;
1593;SDS011;790;47.000;16.084;2022-10-16T14:01:28;27.38;;;24.25;;
1593;SDS011;790;47.000;16.084;2022-10-16T14:04:01;32.03;;;26.58;;
1593;SDS011;790;47.000;16.084;2022-10-16T14:06:30;29.52;;;26.50;;
1593;SDS011;790;47.000;16.084;2022-10-16T14:08:59;29.45;;;26.02;;
1593;SDS011;790;47.000;16.084;2022-10-16T14:11:32;32.15;;;28.50;;
1593;SDS011;790;47.000;16.084;2022-10-16T14:14:03;31.88;;;28.52;;
1593;SDS011;790;47.000;16.084;2022-10-16T14:16:31;34.40;;;30.70;;
1593;SDS011;790;47.000;16.084;2022-10-16T14:18:59;31.35;;;27.98;;
1593;SDS011;790;47.000;16.084;2022-10-16T14:21:29;33.22;;;29.65;;
1593;SDS011;790;47.000;16.084;2022-10-16T14:23:57;30.52;;;27.63;;
1593;SDS011;790;47.000;16.084;2022-10-16T14:26:25;33.33;;;27.98;;
1593;SDS011;790;47.000;16.084;2022-10-16T14:31:53;32.63;;;26.92;;
1593;SDS011;790;47.000;16.084;2022-10-16T14:34:25;40.10;;;29.73;;
1593;SDS011;790;47.000;16.084;2022-10-16T14:36:58;34.40;;;28.73;;
1593;SDS011;790;47.000;16.084;2022-10-16T14:39:32;32.47;;;26.65;;
1593;SDS011;790;47.000;16.084;2022-10-16T14:41:59;30.10;;;26.90;;
1593;SDS011;790;47.000;16.084;2022-10-16T14:44:29;37.95;;;28.38;;
1593;SDS011;790;47.000;16.084;2022-10-16T14:46:58;35.38;;;27.65;;
1593;SDS011;790;47.000;16.084;2022-10-16T14:49:34;33.67;;;28.23;;
1593;SDS011;790;47.000;16.084;2022-10-16T14:52:01;38.33;;;27.20;;
1593;SDS011;790;47.000;16.084;2022-10-16T14:54:31;37.65;;;26.73;;
1593;SDS011;790;47.000;16.084;2022-10-16T14:56:58;35.28;;;26.55;;
1593;SDS011;790;47.000;16.084;2022-10-16T14:59:27;35.38;;;27.00;;
1593;SDS011;790;47.000;16.084;2022-10-16T15:02:00;35.88;;;26.00;;
1593;SDS011;790;47.000;16.084;2022-10-16T15:04:32;29.20;;;26.27;;
1593;SDS011;790;47.000;16.084;2022-10-16T15:06:59;34.83;;;26.98;;
1593;SDS011;790;47.000;16.084;2022-10-16T15:09:26;31.65;;;27.15;;
1593;SDS011;790;47.000;16.084;2022-10-16T15:11:53;34.45;;;28.52;;
1593;SDS011;790;47.000;16.084;2022-10-16T15:14:20;35.58;;;27.88;;
1593;SDS011;790;47.000;16.084;2022-10-16T15:16:50;45.05;;;28.60;;
1593;SDS011;790;47.000;16.084;2022-10-16T15:19:17;37.03;;;28.40;;
1593;SDS011;790;47.000;16.084;2022-10-16T15:21:44;32.28;;;28.35;;